This is the latest recevied weather packets stored in our database for station/object KN6CW-3. If no packets are shown the sender has not sent any weather packets the latest 1 day(s).
| Time | Temp. | Humidity | Pressure | Rain* | Wind** | Luminosity | Snow |
|---|---|---|---|---|---|---|---|
| 1778015975 | 23.33° C | 44% | 1006.5 hPa | 0 mm | 2.24 m/s, 227° | 91 W/m² | - |
| 1778015674 | 23.33° C | 41% | 1006.5 hPa | 0 mm | 2.68 m/s, 130° | 105 W/m² | - |
| 1778015375 | 23.89° C | 40% | 1006.6 hPa | 0 mm | 2.68 m/s, 151° | 135 W/m² | - |
| 1778015074 | 23.89° C | 40% | 1006.5 hPa | 0 mm | 3.13 m/s, 215° | 162 W/m² | - |
| 1778014774 | 24.44° C | 40% | 1006.4 hPa | 0 mm | 2.68 m/s, 211° | 197 W/m² | - |
| 1778014173 | 24.44° C | 41% | 1006.5 hPa | 0 mm | 2.24 m/s, 208° | 367 W/m² | - |
| 1778013873 | 24.44° C | 39% | 1006.4 hPa | 0 mm | 2.68 m/s, 184° | 336 W/m² | - |
| 1778013572 | 24.44° C | 39% | 1006.6 hPa | 0 mm | 3.13 m/s, 167° | 475 W/m² | - |
| 1778013272 | 24.44° C | 37% | 1006.5 hPa | 0 mm | 3.13 m/s, 86° | 294 W/m² | - |
| 1778012972 | 24.44° C | 37% | 1006.7 hPa | 0 mm | 3.13 m/s, 304° | 218 W/m² | - |
| 1778012672 | 25° C | 36% | 1006.6 hPa | 0 mm | 4.02 m/s, 226° | 650 W/m² | - |
| 1778012371 | 25° C | 36% | 1006.6 hPa | 0 mm | 3.58 m/s, 234° | 671 W/m² | - |
| 1778011470 | 25° C | 38% | 1006.5 hPa | 0 mm | 3.13 m/s, 211° | 682 W/m² | - |
| 1778011172 | 24.44° C | 38% | 1006.4 hPa | 0 mm | 3.13 m/s, 242° | 663 W/m² | - |
| 1778010870 | 24.44° C | 38% | 1006.6 hPa | 0 mm | 3.58 m/s, 166° | 248 W/m² | - |
| 1778010269 | 24.44° C | 38% | 1006.7 hPa | 0 mm | 4.02 m/s, 237° | 735 W/m² | - |
| 1778009970 | 25° C | 39% | 1006.7 hPa | 0 mm | 3.13 m/s, 157° | 744 W/m² | - |
| 1778009669 | 24.44° C | 39% | 1007 hPa | 0 mm | 3.13 m/s, 235° | 758 W/m² | - |
| 1778009368 | 23.89° C | 39% | 1007.2 hPa | 0 mm | 3.58 m/s, 273° | 853 W/m² | - |
| 1778009068 | 23.89° C | 39% | 1007.2 hPa | 0 mm | 3.58 m/s, 182° | 308 W/m² | - |
| 1778008768 | 23.89° C | 38% | 1007.2 hPa | 0 mm | 3.58 m/s, 294° | 213 W/m² | - |
| 1778008468 | 25° C | 37% | 1007.2 hPa | 0 mm | 4.02 m/s, 169° | 860 W/m² | - |
| 1778008167 | 25° C | 37% | 1007.2 hPa | 0 mm | 3.58 m/s, 213° | 856 W/m² | - |
| 1778007867 | 24.44° C | 39% | 1007.1 hPa | 0 mm | 3.58 m/s, 181° | 881 W/m² | - |
| 1778007567 | 24.44° C | 40% | 1007.3 hPa | 0 mm | 3.13 m/s, 174° | 875 W/m² | - |
* Rain latest hour (hover to see other rain measurements)
** Current wind speed in m/s (hover to see current wind gust speed)